Time;durP1;ratioP1;P1;durP2;ratioP2;P2;SDS_P1;SDS_P2;PMS_P1;PMS_P2;Temp;Humidity;BMP_temperature;BMP_pressure;BME280_temperature;BME280_humidity;BME280_pressure;Samples;Min_cycle;Max_cycle;Signal;HPM_P1;HPM_P2
2022/05/10 00:00:48;;;;;;;10.63;9.37;;;;;;;14.11;86.03;98676.88;5073387;28;20283;-69
2022/05/10 00:03:15;;;;;;;10.27;9.27;;;;;;;14.11;86.53;98676.88;5073353;28;20215;-69
2022/05/10 00:05:42;;;;;;;10.80;9.33;;;;;;;14.06;87.12;98670.59;5073261;28;20220;-69
2022/05/10 00:08:13;;;;;;;12.07;9.43;;;;;;;13.94;87.35;98669.69;5073239;28;20224;-69
2022/05/10 00:10:40;;;;;;;11.10;9.07;;;;;;;13.93;87.30;98666.19;5076603;28;20189;-69
2022/05/10 00:13:07;;;;;;;9.77;8.77;;;;;;;13.87;88.08;98660.94;5077752;28;20208;-69
2022/05/10 00:15:34;;;;;;;9.87;9.07;;;;;;;13.90;87.91;98664.00;5077192;28;20197;-69
2022/05/10 00:18:00;;;;;;;11.17;10.07;;;;;;;13.85;87.89;98666.53;5077096;28;20282;-69
2022/05/10 00:20:28;;;;;;;11.83;10.20;;;;;;;13.83;87.75;98668.59;5077120;28;20204;-69
2022/05/10 00:22:54;;;;;;;12.87;11.47;;;;;;;13.75;87.93;98668.09;5076778;28;20660;-69
2022/05/10 00:25:26;;;;;;;15.97;11.60;;;;;;;13.76;88.16;98669.72;5076948;28;20243;-69
2022/05/10 00:27:53;;;;;;;17.53;11.87;;;;;;;13.73;88.10;98670.16;5076605;28;20228;-69
2022/05/10 00:30:20;;;;;;;15.20;11.33;;;;;;;13.79;88.61;98664.75;5076607;28;20212;-70
2022/05/10 00:32:46;;;;;;;15.43;12.17;;;;;;;13.78;89.33;98660.44;5076597;28;20686;-69
2022/05/10 00:35:17;;;;;;;12.23;10.87;;;;;;;13.78;88.34;98663.13;5076834;28;20201;-69
2022/05/10 00:37:45;;;;;;;14.00;11.43;;;;;;;13.75;87.90;98668.91;5076773;28;20228;-69
2022/05/10 00:40:13;;;;;;;12.30;10.93;;;;;;;13.70;88.38;98660.75;5075245;28;20211;-69
2022/05/10 00:43:11;;;;;;;12.77;10.70;;;;;;;13.65;89.00;98652.59;5076404;28;20675;-70
2022/05/10 00:45:54;;;;;;;12.33;11.07;;;;;;;13.66;89.05;98664.91;5076570;28;20227;-69
2022/05/10 00:48:38;;;;;;;12.13;10.90;;;;;;;13.67;89.00;98663.88;5076221;28;20707;-69
2022/05/10 00:51:09;;;;;;;11.13;10.17;;;;;;;13.73;88.35;98660.31;5076283;28;20651;-69
2022/05/10 00:53:56;;;;;;;11.63;10.00;;;;;;;13.76;88.73;98659.88;5076079;28;20212;-69
2022/05/10 00:56:31;;;;;;;11.03;9.60;;;;;;;13.73;89.36;98654.97;5076509;28;20191;-70
2022/05/10 00:59:09;;;;;;;11.07;10.00;;;;;;;13.73;89.10;98656.81;5075175;28;20233;-69
2022/05/10 01:01:37;;;;;;;11.27;9.87;;;;;;;13.76;88.62;98653.69;5076372;28;20192;-70
2022/05/10 01:04:20;;;;;;;10.63;9.73;;;;;;;13.72;88.67;98657.84;5075910;28;20216;-69
2022/05/10 01:06:58;;;;;;;10.50;9.50;;;;;;;13.72;89.33;98647.97;5075401;28;20199;-69
2022/05/10 01:09:39;;;;;;;11.57;10.47;;;;;;;13.70;88.93;98650.06;5076260;28;20189;-69
2022/05/10 01:12:09;;;;;;;10.63;9.63;;;;;;;13.65;89.41;98644.56;5075053;28;20192;-69
2022/05/10 01:14:45;;;;;;;11.67;10.50;;;;;;;13.57;89.95;98644.84;5076149;28;20197;-69
2022/05/10 01:17:12;;;;;;;11.23;10.23;;;;;;;13.60;90.20;98640.91;5076045;28;20228;-69
2022/05/10 01:19:40;;;;;;;12.63;10.53;;;;;;;13.55;90.68;98638.09;5075803;28;20299;-70
2022/05/10 01:22:18;;;;;;;12.90;11.17;;;;;;;13.58;90.27;98629.66;5074832;28;20212;-69
2022/05/10 01:24:56;;;;;;;12.97;11.67;;;;;;;13.55;90.29;98635.44;5075924;28;20204;-69
2022/05/10 01:27:40;;;;;;;13.37;11.97;;;;;;;13.46;90.99;98631.44;5075608;28;20228;-69
2022/05/10 01:30:22;;;;;;;14.10;12.80;;;;;;;13.43;91.83;98627.34;5075588;28;20189;-69
2022/05/10 01:33:29;;;;;;;12.57;11.27;;;;;;;13.39;91.68;98628.84;5075870;28;20199;-69
2022/05/10 01:35:59;;;;;;;12.83;11.53;;;;;;;13.40;91.71;98627.00;5075469;28;20689;-69
2022/05/10 01:38:37;;;;;;;13.07;11.83;;;;;;;13.35;92.19;98624.19;5075344;28;20710;-69
2022/05/10 01:41:11;;;;;;;12.60;11.40;;;;;;;13.22;92.60;98613.63;5075706;28;20196;-69
2022/05/10 01:43:49;;;;;;;13.37;12.00;;;;;;;13.23;92.90;98615.25;5076484;28;20203;-69
2022/05/10 01:46:21;;;;;;;12.13;11.03;;;;;;;13.24;93.73;98609.72;5075479;28;20224;-69
2022/05/10 01:48:52;;;;;;;12.73;11.63;;;;;;;13.21;93.46;98604.81;5075186;28;20221;-69
2022/05/10 01:51:34;;;;;;;12.67;11.47;;;;;;;13.17;93.65;98605.47;5075488;28;20195;-69
2022/05/10 01:54:00;;;;;;;13.10;11.73;;;;;;;13.20;93.12;98599.72;5075110;28;20220;-69
2022/05/10 01:56:29;;;;;;;13.07;11.73;;;;;;;13.14;93.38;98601.41;5075352;28;20214;-69
2022/05/10 01:58:55;;;;;;;12.93;11.63;;;;;;;13.12;93.37;98603.47;5075260;28;20228;-69
2022/05/10 02:01:32;;;;;;;13.27;12.03;;;;;;;13.14;93.57;98608.59;5075263;28;20211;-69
2022/05/10 02:04:09;;;;;;;12.30;11.13;;;;;;;13.14;93.28;98600.56;5075248;28;20188;-69
2022/05/10 02:06:43;;;;;;;12.93;11.63;;;;;;;13.08;94.17;98601.47;5073583;28;20667;-69
2022/05/10 02:09:29;;;;;;;12.67;11.50;;;;;;;13.07;93.46;98602.50;5074791;28;20232;-70
2022/05/10 02:12:13;;;;;;;11.87;10.87;;;;;;;13.11;93.34;98601.84;5075024;28;20192;-69
2022/05/10 02:15:02;;;;;;;11.90;10.70;;;;;;;13.02;93.97;98600.50;5075259;28;20651;-69
2022/05/10 02:17:51;;;;;;;12.07;10.90;;;;;;;13.00;94.36;98593.75;5074872;28;20282;-69
2022/05/10 02:20:38;;;;;;;11.63;10.63;;;;;;;13.00;94.54;98597.25;5074882;28;20187;-69
2022/05/10 02:23:11;;;;;;;12.50;11.40;;;;;;;12.98;94.35;98593.97;5074775;28;20189;-69
2022/05/10 02:25:42;;;;;;;13.73;12.53;;;;;;;12.95;95.63;98596.22;5074698;28;20220;-69
2022/05/10 02:28:25;;;;;;;12.37;11.03;;;;;;;12.97;94.83;98603.00;5074655;28;20224;-69
2022/05/10 02:31:00;;;;;;;13.83;11.67;;;;;;;12.93;95.06;98599.13;5074852;28;20208;-69
2022/05/10 02:33:29;;;;;;;12.70;11.40;;;;;;;12.91;95.06;98593.19;5073643;28;20654;-70
2022/05/10 02:35:59;;;;;;;15.23;11.93;;;;;;;12.91;95.20;98590.53;5074205;28;20208;-69
2022/05/10 02:38:29;;;;;;;12.80;11.47;;;;;;;12.83;95.35;98597.97;5074090;28;20228;-69
2022/05/10 02:40:59;;;;;;;12.43;11.37;;;;;;;12.82;96.05;98599.84;5074417;28;20208;-69
2022/05/10 02:43:28;;;;;;;12.87;11.63;;;;;;;12.78;96.03;98589.81;5074030;28;20257;-69
2022/05/10 02:45:55;;;;;;;13.53;12.43;;;;;;;12.77;96.56;98594.34;5074148;28;20238;-69
2022/05/10 02:48:34;;;;;;;12.97;11.77;;;;;;;12.77;96.10;98597.03;5074169;28;20231;-69
2022/05/10 02:51:00;;;;;;;13.87;12.67;;;;;;;12.77;96.19;98593.53;5074217;28;20215;-69
2022/05/10 02:53:28;;;;;;;13.00;11.63;;;;;;;12.72;96.26;98594.19;5073909;28;20222;-69
2022/05/10 02:56:09;;;;;;;13.63;12.27;;;;;;;12.69;96.38;98594.63;5074074;28;20207;-69
2022/05/10 02:58:42;;;;;;;13.00;11.83;;;;;;;12.72;96.65;98591.53;5073836;28;20227;-69
2022/05/10 03:01:19;;;;;;;13.77;12.40;;;;;;;12.71;96.32;98587.22;5073969;28;20207;-69
2022/05/10 03:03:46;;;;;;;13.00;11.80;;;;;;;12.70;96.49;98593.59;5074034;28;20195;-69
2022/05/10 03:06:21;;;;;;;13.73;12.33;;;;;;;12.64;96.45;98591.81;5073571;28;20234;-69
2022/05/10 03:08:48;;;;;;;14.07;12.80;;;;;;;12.61;97.19;98584.22;5073829;28;20233;-69
2022/05/10 03:11:15;;;;;;;13.57;12.40;;;;;;;12.62;96.95;98593.06;5073838;28;20203;-70
2022/05/10 03:13:43;;;;;;;13.20;12.10;;;;;;;12.62;96.96;98593.06;5073671;28;20219;-69
2022/05/10 03:16:10;;;;;;;13.57;12.37;;;;;;;12.57;97.08;98590.25;5073555;28;20202;-69
2022/05/10 03:18:37;;;;;;;14.13;12.83;;;;;;;12.55;97.18;98581.63;5073253;28;20237;-69
2022/05/10 03:21:03;;;;;;;13.10;11.80;;;;;;;12.55;97.60;98587.78;5073190;28;20666;-69
2022/05/10 03:23:30;;;;;;;14.70;13.30;;;;;;;12.46;98.04;98581.09;5073314;28;20546;-69
2022/05/10 03:25:57;;;;;;;14.87;13.67;;;;;;;12.48;97.98;98584.34;5073782;28;20580;-69
2022/05/10 03:28:25;;;;;;;14.67;13.17;;;;;;;12.40;98.14;98576.63;5073539;28;20227;-69
2022/05/10 03:30:51;;;;;;;14.37;12.93;;;;;;;12.42;98.31;98585.22;5073302;28;20313;-69
2022/05/10 03:33:18;;;;;;;15.07;13.60;;;;;;;12.41;98.49;98583.59;5073329;28;20211;-69
2022/05/10 03:35:44;;;;;;;14.53;13.10;;;;;;;12.48;97.99;98580.88;5073355;28;20217;-69
2022/05/10 03:38:11;;;;;;;14.83;13.23;;;;;;;12.48;98.06;98573.66;5073361;28;20238;-69
2022/05/10 03:40:38;;;;;;;15.03;13.63;;;;;;;12.47;97.98;98572.03;5073013;28;20203;-69
2022/05/10 03:43:08;;;;;;;15.77;14.17;;;;;;;12.47;98.00;98573.88;5073182;28;20212;-69
2022/05/10 03:45:36;;;;;;;15.07;13.53;;;;;;;12.42;97.92;98577.22;5071695;28;20227;-69
2022/05/10 03:48:02;;;;;;;14.40;13.10;;;;;;;12.38;98.39;98583.22;5073140;28;20237;-69
2022/05/10 03:50:29;;;;;;;15.13;13.70;;;;;;;12.33;98.42;98581.19;5073031;28;20572;-69
2022/05/10 03:52:56;;;;;;;13.87;12.57;;;;;;;12.25;98.58;98578.00;5072991;28;20219;-69
2022/05/10 03:55:25;;;;;;;14.13;12.77;;;;;;;12.29;98.39;98585.31;5073170;28;20202;-69
2022/05/10 03:57:53;;;;;;;14.47;12.97;;;;;;;12.31;99.00;98579.78;5072787;28;20231;-69
2022/05/10 04:00:29;;;;;;;14.50;13.20;;;;;;;12.31;99.32;98583.28;5073279;28;20211;-69
2022/05/10 04:02:57;;;;;;;15.97;14.20;;;;;;;12.26;99.66;98585.75;5073150;28;20201;-69
2022/05/10 04:05:28;;;;;;;14.93;13.43;;;;;;;12.29;99.36;98590.66;5072936;28;20232;-69
2022/05/10 04:07:54;;;;;;;14.57;13.23;;;;;;;12.33;99.37;98585.69;5072819;28;20235;-69
2022/05/10 04:10:23;;;;;;;15.63;14.13;;;;;;;12.38;99.06;98583.22;5072990;28;20231;-69
2022/05/10 04:12:50;;;;;;;15.30;13.83;;;;;;;12.39;98.76;98582.97;5072750;28;20210;-69
2022/05/10 04:15:19;;;;;;;14.97;13.67;;;;;;;12.39;99.12;98584.84;5072929;28;20402;-69
2022/05/10 04:17:45;;;;;;;15.33;13.73;;;;;;;12.42;98.78;98584.38;5072658;28;20238;-70
2022/05/10 04:20:14;;;;;;;15.27;13.03;;;;;;;12.42;98.99;98589.72;5072781;28;20211;-69
2022/05/10 04:22:41;;;;;;;15.47;13.97;;;;;;;12.41;99.15;98580.09;5072807;28;20233;-69
2022/05/10 04:25:07;;;;;;;16.03;14.43;;;;;;;12.40;99.05;98575.81;5072280;28;20213;-69
2022/05/10 04:27:35;;;;;;;15.60;14.10;;;;;;;12.41;99.07;98577.44;5072581;28;20257;-69
2022/05/10 04:30:01;;;;;;;15.87;13.80;;;;;;;12.44;98.93;98583.13;5073627;28;20211;-70
2022/05/10 04:32:28;;;;;;;14.90;13.60;;;;;;;12.45;99.34;98581.31;5072738;28;20551;-69
2022/05/10 04:34:54;;;;;;;15.37;13.87;;;;;;;12.55;99.57;98578.94;5072267;28;20204;-69
2022/05/10 04:37:20;;;;;;;13.67;12.47;;;;;;;12.58;98.99;98590.03;5072090;28;20235;-69
2022/05/10 04:42:31;;;;;;;14.70;13.40;;;;;;;12.73;97.99;98589.66;5072166;28;20179;-72
2022/05/10 04:44:59;;;;;;;15.53;14.17;;;;;;;12.77;98.29;98589.03;5072028;28;20215;-69
2022/05/10 04:47:26;;;;;;;15.80;14.13;;;;;;;12.85;97.51;98578.03;5072364;28;20242;-69
2022/05/10 04:49:52;;;;;;;14.93;13.43;;;;;;;12.94;97.39;98579.38;5072313;28;20216;-70
2022/05/10 04:52:18;;;;;;;14.37;12.93;;;;;;;13.06;95.61;98577.66;5072145;28;20216;-70
2022/05/10 04:54:45;;;;;;;15.43;13.87;;;;;;;13.15;94.63;98578.19;5072263;28;20212;-70
2022/05/10 04:57:11;;;;;;;14.70;13.30;;;;;;;13.28;93.25;98584.19;5075813;28;20226;-70
2022/05/10 04:59:37;;;;;;;13.97;12.30;;;;;;;13.61;91.08;98581.94;5075420;28;20658;-69
2022/05/10 05:02:04;;;;;;;13.80;12.40;;;;;;;13.83;88.74;98583.06;5075721;28;20208;-69
2022/05/10 05:04:30;;;;;;;13.90;12.70;;;;;;;13.96;88.20;98590.91;5075116;28;20551;-70
2022/05/10 05:06:57;;;;;;;14.37;12.13;;;;;;;14.04;87.66;98589.78;5075495;28;20224;-69
2022/05/10 05:09:23;;;;;;;15.93;12.40;;;;;;;13.95;87.29;98586.63;5075617;28;20216;-70
2022/05/10 05:11:49;;;;;;;13.47;12.13;;;;;;;13.95;87.41;98581.28;5075855;28;20204;-70
2022/05/10 05:14:16;;;;;;;13.97;12.57;;;;;;;13.91;87.80;98598.81;5075718;28;20577;-70
2022/05/10 05:16:42;;;;;;;13.63;12.23;;;;;;;13.92;88.13;98599.59;5075115;28;20210;-69
2022/05/10 05:19:09;;;;;;;15.40;12.43;;;;;;;13.96;87.61;98603.44;5074698;28;20224;-69
2022/05/10 05:21:35;;;;;;;19.00;13.23;;;;;;;14.02;88.43;98602.56;5075214;28;20205;-70
2022/05/10 05:24:01;;;;;;;13.63;12.33;;;;;;;14.15;87.66;98595.16;5075635;28;20342;-70
2022/05/10 05:26:28;;;;;;;13.67;12.37;;;;;;;14.20;86.20;98605.19;5074468;28;20229;-70
2022/05/10 05:28:54;;;;;;;14.47;13.07;;;;;;;14.26;85.77;98604.28;5074678;28;20224;-70
2022/05/10 05:31:21;;;;;;;13.20;11.90;;;;;;;14.42;85.91;98598.28;5074827;28;20223;-70
2022/05/10 05:33:48;;;;;;;13.17;11.83;;;;;;;14.51;84.88;98600.38;5074404;28;20671;-69
2022/05/10 05:36:14;;;;;;;14.10;12.43;;;;;;;14.52;84.46;98598.53;5074790;28;20239;-70
2022/05/10 05:38:41;;;;;;;13.20;12.03;;;;;;;14.47;83.57;98607.22;5074230;28;20231;-70
2022/05/10 05:41:07;;;;;;;13.43;12.23;;;;;;;14.61;83.72;98591.78;5073982;28;20671;-70
2022/05/10 05:43:34;;;;;;;12.93;11.83;;;;;;;14.73;83.55;98609.47;5074912;28;20218;-70
2022/05/10 05:46:01;;;;;;;13.13;11.93;;;;;;;14.73;83.21;98606.81;5075417;28;20294;-69
2022/05/10 05:48:29;;;;;;;13.77;12.47;;;;;;;14.68;82.68;98604.03;5074565;28;20220;-69
2022/05/10 05:50:56;;;;;;;13.77;12.37;;;;;;;14.62;82.54;98612.16;5074586;28;20208;-70
2022/05/10 05:53:23;;;;;;;14.10;12.80;;;;;;;14.71;82.56;98619.63;5074263;28;20213;-69
2022/05/10 05:55:49;;;;;;;14.77;13.30;;;;;;;14.72;82.84;98617.75;5074515;28;20283;-70
2022/05/10 05:58:16;;;;;;;14.37;12.87;;;;;;;14.77;82.83;98624.03;5074291;28;20224;-70
2022/05/10 06:00:42;;;;;;;14.60;13.30;;;;;;;14.79;82.36;98603.19;5074125;28;20219;-69
2022/05/10 06:03:10;;;;;;;14.20;12.70;;;;;;;14.89;82.20;98616.84;5073661;28;20219;-70
2022/05/10 06:05:36;;;;;;;16.17;13.30;;;;;;;14.92;82.00;98611.00;5074356;28;20205;-69
2022/05/10 06:08:06;;;;;;;14.83;13.43;;;;;;;15.07;82.19;98618.56;5073208;28;20250;-70
2022/05/10 06:10:32;;;;;;;16.90;14.53;;;;;;;15.17;81.96;98616.13;5073909;28;20212;-70
2022/05/10 06:13:03;;;;;;;15.33;12.87;;;;;;;15.14;81.23;98611.22;5073824;28;20571;-70
2022/05/10 06:15:30;;;;;;;15.40;13.33;;;;;;;15.18;80.98;98623.91;5074067;28;20192;-70
2022/05/10 06:17:57;;;;;;;15.37;13.77;;;;;;;15.26;81.23;98618.22;5073808;28;20711;-69
2022/05/10 06:20:24;;;;;;;14.87;13.00;;;;;;;15.42;79.76;98612.16;5073820;28;20208;-70
2022/05/10 06:22:51;;;;;;;15.70;14.23;;;;;;;15.65;78.55;98619.34;5073817;28;20200;-69
2022/05/10 06:25:20;;;;;;;16.27;14.33;;;;;;;15.65;79.21;98609.41;5074170;28;20207;-70
2022/05/10 06:27:48;;;;;;;17.40;13.67;;;;;;;15.65;79.79;98614.78;5073698;28;20237;-70
2022/05/10 06:30:15;;;;;;;14.90;13.00;;;;;;;15.65;79.07;98617.44;5073624;28;20220;-70
2022/05/10 06:32:41;;;;;;;15.93;13.67;;;;;;;15.68;79.98;98617.00;5073842;28;20208;-70
2022/05/10 06:35:09;;;;;;;15.30;13.77;;;;;;;15.88;78.13;98620.06;5073938;28;20204;-70
2022/05/10 06:40:20;;;;;;;15.17;13.60;;;;;;;16.08;77.58;98623.13;5073630;28;20183;-70
2022/05/10 06:42:47;;;;;;;15.97;12.80;;;;;;;16.21;76.20;98620.16;5073503;28;20574;-70
2022/05/10 06:45:17;;;;;;;14.30;13.00;;;;;;;16.32;76.33;98616.59;5073512;28;20208;-70
2022/05/10 06:47:46;;;;;;;17.70;12.83;;;;;;;16.37;76.92;98621.25;5073260;28;20229;-71
2022/05/10 06:50:15;;;;;;;14.43;12.47;;;;;;;16.48;76.19;98615.03;5073748;28;20215;-70
2022/05/10 06:52:42;;;;;;;14.63;12.73;;;;;;;16.57;74.87;98617.06;5073413;28;20672;-70
2022/05/10 06:55:10;;;;;;;13.97;12.00;;;;;;;16.77;74.00;98609.34;5072920;28;20205;-70
2022/05/10 06:57:36;;;;;;;12.77;11.40;;;;;;;16.98;73.00;98607.78;5073699;28;20274;-70
2022/05/10 07:00:05;;;;;;;14.10;12.43;;;;;;;16.85;73.13;98611.63;5073323;28;20671;-70
2022/05/10 07:02:31;;;;;;;13.47;11.90;;;;;;;16.84;72.93;98612.69;5073188;28;20216;-70
2022/05/10 07:04:58;;;;;;;12.67;11.37;;;;;;;16.99;72.26;98604.84;5073549;28;20212;-70
2022/05/10 07:07:24;;;;;;;12.70;11.50;;;;;;;16.83;71.68;98613.72;5073421;28;20233;-70
2022/05/10 07:09:52;;;;;;;17.27;11.80;;;;;;;17.02;72.10;98607.06;5073261;28;20208;-70
2022/05/10 07:12:18;;;;;;;13.83;12.33;;;;;;;16.99;72.24;98604.84;5073503;28;20215;-70
2022/05/10 07:14:45;;;;;;;14.37;12.40;;;;;;;17.02;71.90;98611.59;5073411;28;20204;-70
2022/05/10 07:17:15;;;;;;;13.97;12.57;;;;;;;17.03;72.39;98607.84;5073284;28;20224;-70
2022/05/10 07:19:42;;;;;;;14.17;12.47;;;;;;;17.13;71.88;98603.44;5073043;28;20215;-70
2022/05/10 07:22:08;;;;;;;16.53;12.43;;;;;;;17.42;71.80;98599.56;5073201;28;20215;-70
2022/05/10 07:24:35;;;;;;;14.23;12.90;;;;;;;17.30;71.47;98598.84;5072916;28;20719;-70
2022/05/10 07:27:01;;;;;;;14.67;12.63;;;;;;;17.42;71.20;98601.44;5072960;28;20227;-70
2022/05/10 07:29:28;;;;;;;13.27;11.90;;;;;;;17.76;70.41;98597.56;5073232;28;20201;-70
2022/05/10 07:31:54;;;;;;;14.40;12.57;;;;;;;17.69;70.31;98602.31;5073008;28;20204;-70
2022/05/10 07:34:21;;;;;;;16.80;12.63;;;;;;;17.71;70.81;98600.19;5073061;28;20216;-70
2022/05/10 07:36:47;;;;;;;13.20;11.80;;;;;;;17.92;69.80;98592.09;5072886;28;20236;-70
2022/05/10 07:39:15;;;;;;;14.47;11.50;;;;;;;17.98;70.30;98601.03;5072904;28;20211;-70
2022/05/10 07:41:43;;;;;;;14.07;12.57;;;;;;;18.22;69.41;98608.56;5073479;28;20211;-70
2022/05/10 07:44:09;;;;;;;13.13;11.73;;;;;;;18.30;69.48;98602.72;5073008;28;20236;-70
2022/05/10 07:46:36;;;;;;;12.37;11.17;;;;;;;18.64;67.31;98601.44;5073161;28;20224;-70
2022/05/10 07:49:02;;;;;;;18.40;11.23;;;;;;;18.88;68.09;98601.91;5072586;28;20232;-70
2022/05/10 07:51:29;;;;;;;12.70;10.13;;;;;;;18.85;67.46;98600.53;5073017;28;20215;-70
2022/05/10 07:53:56;;;;;;;12.97;10.30;;;;;;;19.16;67.07;98596.16;5072510;28;20208;-70
2022/05/10 07:56:24;;;;;;;11.53;9.87;;;;;;;19.25;64.80;98595.44;5072815;28;20227;-70
2022/05/10 07:58:50;;;;;;;13.37;10.03;;;;;;;19.32;66.46;98596.00;5072642;28;20266;-70
2022/05/10 08:01:16;;;;;;;12.23;9.97;;;;;;;19.49;64.90;98593.94;5072555;28;20210;-70
2022/05/10 08:03:43;;;;;;;10.57;9.40;;;;;;;19.60;65.18;98594.78;5072477;28;20663;-70
2022/05/10 08:06:09;;;;;;;10.53;9.37;;;;;;;19.64;63.92;98602.09;5072845;28;20204;-70
2022/05/10 08:08:36;;;;;;;12.27;9.10;;;;;;;19.63;64.48;98588.06;5072913;28;20228;-70
2022/05/10 08:11:04;;;;;;;10.43;8.77;;;;;;;19.73;64.08;98596.19;5072865;28;20201;-70
2022/05/10 08:13:32;;;;;;;9.60;8.70;;;;;;;20.00;63.59;98594.94;5072815;28;20213;-70
2022/05/10 08:16:00;;;;;;;10.53;9.03;;;;;;;19.83;62.68;98593.53;5072554;28;20211;-71
2022/05/10 08:18:27;;;;;;;10.57;9.00;;;;;;;20.12;62.83;98592.03;5072059;28;20224;-70
2022/05/10 08:20:56;;;;;;;9.07;7.97;;;;;;;20.06;62.25;98587.66;5072275;28;20213;-70
2022/05/10 08:23:26;;;;;;;9.30;7.83;;;;;;;20.02;62.28;98590.06;5072563;28;20211;-70
2022/05/10 08:25:54;;;;;;;8.63;7.63;;;;;;;20.26;61.75;98587.75;5072405;28;20292;-70
2022/05/10 08:28:25;;;;;;;9.23;8.30;;;;;;;20.41;60.78;98593.16;5072148;28;20599;-70
2022/05/10 08:30:52;;;;;;;10.60;8.33;;;;;;;20.50;61.16;98586.13;5074497;28;20199;-70
2022/05/10 08:33:24;;;;;;;10.63;9.03;;;;;;;20.61;61.15;98585.06;5076213;28;20210;-70
2022/05/10 08:35:52;;;;;;;10.13;7.70;;;;;;;20.86;61.79;98574.22;5076310;28;20590;-70
2022/05/10 08:38:20;;;;;;;8.83;8.00;;;;;;;20.70;60.59;98578.03;5076101;28;20224;-70
2022/05/10 08:41:10;;;;;;;9.50;7.47;;;;;;;20.78;60.79;98582.88;5076071;28;20209;-70
2022/05/10 08:43:48;;;;;;;11.37;7.83;;;;;;;20.97;59.30;98573.16;5076330;28;20223;-70
2022/05/10 08:46:17;;;;;;;10.33;7.50;;;;;;;21.05;59.28;98578.84;5075914;28;20635;-70
2022/05/10 08:48:48;;;;;;;9.20;7.27;;;;;;;21.31;58.20;98574.19;5076297;28;20316;-70
2022/05/10 08:51:15;;;;;;;7.67;7.07;;;;;;;21.31;58.66;98568.78;5075903;28;20193;-71
2022/05/10 08:53:41;;;;;;;7.73;6.37;;;;;;;21.50;58.01;98569.78;5075606;28;20224;-70
2022/05/10 08:56:17;;;;;;;9.33;6.70;;;;;;;21.53;55.92;98563.81;5076093;28;20208;-71
2022/05/10 08:58:52;;;;;;;9.23;6.80;;;;;;;21.61;55.18;98563.25;5074442;28;20636;-70
2022/05/10 09:01:26;;;;;;;10.00;6.25;;;;;;;21.73;53.87;98566.47;5075849;28;20195;-70
2022/05/10 09:04:16;;;;;;;6.90;6.03;;;;;;;21.79;55.38;98562.66;5075666;28;20184;-70
2022/05/10 09:06:51;;;;;;;7.55;6.07;;;;;;;21.90;54.40;98561.50;5075840;28;20213;-70
2022/05/10 09:09:26;;;;;;;6.90;5.60;;;;;;;22.18;54.34;98558.09;5076013;28;20195;-70
2022/05/10 09:12:19;;;;;;;6.50;5.72;;;;;;;22.49;52.03;98557.63;5075891;28;20211;-70
2022/05/10 09:14:56;;;;;;;6.05;5.40;;;;;;;22.57;52.35;98558.91;5075964;28;20188;-70
2022/05/10 09:17:26;;;;;;;6.68;5.45;;;;;;;22.65;52.93;98552.91;5075659;28;20224;-70
2022/05/10 09:19:53;;;;;;;5.22;4.72;;;;;;;22.66;49.63;98557.22;5075218;28;20679;-70
2022/05/10 09:22:28;;;;;;;6.30;5.70;;;;;;;22.58;49.74;98565.94;5075376;28;20220;-70
2022/05/10 09:24:56;;;;;;;5.88;5.35;;;;;;;22.69;48.70;98553.91;5075743;28;20601;-70
2022/05/10 09:27:28;;;;;;;5.13;4.70;;;;;;;22.99;48.68;98548.22;5075253;28;20260;-70
2022/05/10 09:29:55;;;;;;;5.60;4.65;;;;;;;23.02;45.28;98548.44;5075453;28;20193;-70
2022/05/10 09:35:13;;;;;;;5.93;4.90;;;;;;;23.43;46.72;98546.16;5075440;28;20222;-70
2022/05/10 09:37:48;;;;;;;6.82;4.80;;;;;;;23.18;47.63;98547.22;5075551;28;20223;-70
2022/05/10 09:40:18;;;;;;;4.30;4.00;;;;;;;23.63;45.47;98554.03;5075234;28;20214;-71
2022/05/10 09:42:49;;;;;;;5.10;4.60;;;;;;;23.90;46.60;98541.50;5075479;28;20209;-70
2022/05/10 09:45:20;;;;;;;5.40;4.95;;;;;;;23.75;47.05;98544.34;5075224;28;20220;-70
2022/05/10 09:48:10;;;;;;;5.40;4.93;;;;;;;23.67;46.58;98539.59;5074705;28;20703;-70
2022/05/10 09:50:42;;;;;;;4.47;4.07;;;;;;;23.94;44.75;98536.28;5075036;28;20189;-70
2022/05/10 09:53:28;;;;;;;5.80;5.22;;;;;;;23.78;47.28;98534.84;5074548;28;20212;-70
2022/05/10 09:56:02;;;;;;;5.00;4.60;;;;;;;23.71;46.09;98539.81;5074671;28;20709;-70
2022/05/10 09:58:35;;;;;;;6.63;5.03;;;;;;;24.19;43.96;98536.69;5074606;28;20714;-70
2022/05/10 10:01:05;;;;;;;5.30;4.90;;;;;;;24.31;45.68;98537.06;5074593;28;20636;-70
2022/05/10 10:03:37;;;;;;;5.28;4.72;;;;;;;24.21;43.92;98530.97;5074331;28;20683;-70
2022/05/10 10:06:24;;;;;;;5.03;4.63;;;;;;;24.08;44.09;98534.44;5074502;28;20578;-70
2022/05/10 10:08:52;;;;;;;5.38;4.97;;;;;;;24.11;43.49;98520.28;5074663;28;20246;-70
2022/05/10 10:11:24;;;;;;;5.38;4.32;;;;;;;24.46;42.19;98522.44;5075017;28;20218;-70
2022/05/10 10:13:54;;;;;;;8.00;4.20;;;;;;;24.10;42.23;98516.72;5075010;28;20349;-70
2022/05/10 10:16:32;;;;;;;6.40;4.35;;;;;;;24.63;42.65;98509.94;5074852;28;20211;-70
2022/05/10 10:19:06;;;;;;;5.38;4.40;;;;;;;24.27;42.74;98517.03;5074687;28;20244;-70
2022/05/10 10:22:00;;;;;;;4.90;4.50;;;;;;;24.19;42.24;98519.63;5074441;28;20242;-70
2022/05/10 10:24:35;;;;;;;4.50;4.15;;;;;;;24.60;41.80;98515.16;5073936;28;20213;-70
2022/05/10 10:27:09;;;;;;;4.90;4.13;;;;;;;24.43;42.08;98512.94;5074102;28;20223;-70
2022/05/10 10:29:52;;;;;;;5.55;4.30;;;;;;;24.17;41.10;98516.38;5073957;28;20192;-70
2022/05/10 10:32:23;;;;;;;4.47;4.07;;;;;;;24.52;41.40;98521.25;5074478;28;20193;-70
2022/05/10 10:34:55;;;;;;;5.68;4.65;;;;;;;24.69;41.17;98510.66;5074677;28;20224;-70
2022/05/10 10:37:29;;;;;;;4.90;4.47;;;;;;;24.73;41.13;98509.75;5072812;28;20587;-70
2022/05/10 10:40:33;;;;;;;4.53;4.10;;;;;;;24.46;40.20;98512.34;5072511;28;20189;-70
2022/05/10 10:43:20;;;;;;;4.35;4.00;;;;;;;24.01;42.83;98506.84;5074057;28;20219;-70
2022/05/10 10:45:50;;;;;;;5.72;4.35;;;;;;;23.69;42.89;98509.44;5074816;28;20193;-70
2022/05/10 10:48:48;;;;;;;5.50;4.22;;;;;;;23.65;41.86;98503.78;5072322;28;20594;-70
2022/05/10 10:51:16;;;;;;;4.00;3.70;;;;;;;24.09;39.73;98506.16;5073071;28;20205;-70
2022/05/10 10:53:46;;;;;;;4.35;4.00;;;;;;;24.43;41.12;98493.91;5072558;28;20216;-70
2022/05/10 10:56:33;;;;;;;4.65;3.97;;;;;;;24.26;41.45;98495.56;5073919;28;20200;-70
2022/05/10 10:59:40;;;;;;;4.03;3.72;;;;;;;24.37;40.27;98491.59;5073684;28;20231;-70
2022/05/10 11:02:37;;;;;;;5.18;4.00;;;;;;;24.22;41.21;98495.38;5072459;28;20193;-70
2022/05/10 11:05:31;;;;;;;4.40;4.00;;;;;;;24.05;40.53;98494.25;5074288;28;20189;-70
2022/05/10 11:08:41;;;;;;;4.60;4.15;;;;;;;23.71;43.21;98480.09;5072175;28;20228;-70
2022/05/10 11:11:20;;;;;;;5.07;4.60;;;;;;;23.43;44.03;98475.59;5072642;28;20246;-69
2022/05/10 11:14:05;;;;;;;4.35;3.97;;;;;;;23.39;42.87;98469.13;5073332;28;20204;-70
2022/05/10 11:16:45;;;;;;;3.95;3.65;;;;;;;22.96;44.21;98478.28;5073464;28;20196;-70
2022/05/10 11:19:34;;;;;;;4.15;3.85;;;;;;;22.98;44.22;98476.09;5072053;28;20223;-70
2022/05/10 11:22:32;;;;;;;4.38;4.05;;;;;;;23.17;41.16;98471.53;5073330;28;20208;-70
2022/05/10 11:25:41;;;;;;;4.13;3.70;;;;;;;23.46;40.33;98462.22;5071725;28;20185;-70
2022/05/10 11:28:16;;;;;;;4.80;3.42;;;;;;;23.62;41.76;98457.41;5073156;28;20228;-70
2022/05/10 11:31:12;;;;;;;6.05;4.03;;;;;;;24.19;39.23;98459.84;5073269;28;20184;-70
2022/05/10 11:34:00;;;;;;;4.03;3.72;;;;;;;24.92;40.17;98450.63;5072972;28;20185;-70
2022/05/10 11:36:35;;;;;;;3.88;3.58;;;;;;;24.87;39.81;98441.78;5072870;28;20200;-70
2022/05/10 11:39:31;;;;;;;3.58;3.30;;;;;;;25.42;37.59;98441.47;5072664;28;20227;-71
2022/05/10 11:42:07;;;;;;;3.65;3.35;;;;;;;25.64;36.37;98433.34;5073293;28;20193;-70
2022/05/10 11:44:58;;;;;;;3.42;3.15;;;;;;;25.42;34.39;98441.47;5072600;28;20697;-70
2022/05/10 11:47:44;;;;;;;3.55;3.20;;;;;;;25.25;36.78;98429.56;5072498;28;20233;-70
2022/05/10 11:50:30;;;;;;;3.80;3.45;;;;;;;24.71;36.96;98429.56;5072540;28;20651;-70
2022/05/10 11:53:31;;;;;;;4.05;3.63;;;;;;;24.62;39.60;98437.63;5072871;28;20208;-70